MOL Paramount — 3ECH9 — position and weather

sailwx.info

Track history (hours):
 
Tides and Currents Weather Stations Pressure Air Temp Water Temp Dewpoint Dewpoint Depression Visibility Wind Speed Wind Dir Waves Ship Positions

MOL Paramount

Last reported at 2016-Sep-20 14:33 UTC. Time now 2016-Sep-25 08:49 UTC.
Position S 23°58' W 046°18'.

Length 293 m; draft 10.5 m.

Type: Cargo ship. MMSI: 371519000.

Date/timePositionNaut miles runAvg speedWind from/ knotsBaromVisibWave heightAir tempDewpointWater temp
2016-Sep-20 14:33S 23°58' W 046°18'0 0.0
2016-Sep-20 13:33S 23°58' W 046°18'0 0.0
2016-Sep-20 10:30S 23°58' W 046°18'0 0.0
2016-Sep-20 08:33S 23°58' W 046°18'0 0.0
2016-Sep-20 07:33S 23°58' W 046°18'0 0.0
2016-Sep-20 06:33S 23°58' W 046°18'0 0.0
2016-Sep-20 02:30S 23°58' W 046°18'0 0.0
2016-Sep-19 23:27S 23°58' W 046°18'0 0.0
2016-Sep-19 19:30S 23°58' W 046°18'0 0.0
2016-Sep-19 18:33S 23°58' W 046°18'0 0.0
2016-Sep-19 16:24S 23°58' W 046°18'0 0.0
2016-Sep-19 14:33S 23°58' W 046°18'0 0.0
2016-Sep-19 13:30S 23°58' W 046°18'0 0.0
2016-Sep-19 12:30S 23°58' W 046°18'0 0.0
2016-Sep-19 11:30S 23°58' W 046°18'0 0.0
2016-Sep-19 09:24S 23°58' W 046°18'0 0.0
2016-Sep-19 07:30S 23°58' W 046°18'0 0.0
2016-Sep-19 06:30S 23°58' W 046°18'0 0.0
2016-Sep-19 03:24S 23°58' W 046°18'3 3.7
2016-Sep-19 02:33S 24°00' W 046°20'7 3.6
2016-Sep-19 00:34S 24°07' W 046°20'0 0.0
2016-Sep-18 19:28S 24°07' W 046°20'0 0.0
2016-Sep-18 15:28S 24°07' W 046°20'0 0.0
2016-Sep-18 14:34S 24°07' W 046°20'0 0.0
2016-Sep-18 10:25S 24°07' W 046°20'0 0.0
2016-Sep-18 09:34S 24°07' W 046°20'0 0.0
2016-Sep-18 02:34S 24°07' W 046°20'0 0.0
2016-Sep-18 01:28S 24°07' W 046°20'0 0.0
2016-Sep-18 00:31S 24°07' W 046°20'0 0.0
2016-Sep-17 22:25S 24°07' W 046°20'0 0.0
2016-Sep-17 21:34S 24°07' W 046°20'0 0.0
2016-Sep-17 20:31S 24°07' W 046°20'1 0.7
2016-Sep-17 19:16S 24°08' W 046°20'17711.7
2016-Sep-17 04:14S 23°12' W 043°17'20 5.5
2016-Sep-17 00:33S 22°52' W 043°12'0 0.0
2016-Sep-16 17:27S 22°52' W 043°12'0 0.0
2016-Sep-16 15:33S 22°52' W 043°12'0 0.0
2016-Sep-16 12:33S 22°52' W 043°12'20817.3
2016-Sep-16 00:33S 24°44' W 046°24'  
2016-Sep-13 07:30S 26°55' W 048°32'0 0.0
2016-Sep-13 04:28S 26°55' W 048°32'172 6.4
2016-Sep-12 01:33S 24°36' W 046°40'2211.2
2016-Sep-11 23:33S 24°17' W 046°27'1211.8
2016-Sep-11 22:33S 24°06' W 046°23'9 8.6
2016-Sep-11 21:33S 23°59' W 046°17'1 1.0
2016-Sep-11 20:33S 23°58' W 046°18'0 0.0
2016-Sep-11 19:27S 23°58' W 046°18'0 0.0
2016-Sep-11 18:33S 23°58' W 046°18'0 0.0
2016-Sep-11 17:33S 23°58' W 046°18'0 0.0
2016-Sep-11 16:33S 23°58' W 046°18'0 0.0
2016-Sep-11 15:24S 23°58' W 046°18'0 0.0
2016-Sep-11 14:30S 23°58' W 046°18'0 0.0
2016-Sep-11 13:33S 23°58' W 046°18'0 0.0
2016-Sep-11 12:33S 23°58' W 046°18'0 0.0
2016-Sep-11 11:33S 23°58' W 046°18'0 0.0
2016-Sep-11 10:33S 23°58' W 046°18'0 0.0
2016-Sep-11 08:30S 23°58' W 046°18'0 0.0
2016-Sep-11 07:30S 23°58' W 046°18'5 1.3
2016-Sep-11 03:33S 24°02' W 046°21'1110.7
2016-Sep-11 02:34S 24°13' W 046°22'1717.0
2016-Sep-11 01:34S 24°23' W 046°07'  
Track history (hours):
 
Tides and Currents Weather Stations Pressure Air Temp Water Temp Dewpoint Dewpoint Depression Visibility Wind Speed Wind Dir Waves Ship Positions

MOL Paramount

Last reported at 2016-Sep-20 14:33 UTC. Time now 2016-Sep-25 08:49 UTC.
Position S 23°58' W 046°18'.

Length 293 m; draft 10.5 m.

Type: Cargo ship. MMSI: 371519000.

Date/timePositionNaut miles runAvg speedWind from/ knotsBaromVisibWave heightAir tempDewpointWater temp
2016-Sep-20 14:33S 23°58' W 046°18'0 0.0
2016-Sep-20 13:33S 23°58' W 046°18'0 0.0
2016-Sep-20 10:30S 23°58' W 046°18'0 0.0
2016-Sep-20 08:33S 23°58' W 046°18'0 0.0
2016-Sep-20 07:33S 23°58' W 046°18'0 0.0
2016-Sep-20 06:33S 23°58' W 046°18'0 0.0
2016-Sep-20 02:30S 23°58' W 046°18'0 0.0
2016-Sep-19 23:27S 23°58' W 046°18'0 0.0
2016-Sep-19 19:30S 23°58' W 046°18'0 0.0
2016-Sep-19 18:33S 23°58' W 046°18'0 0.0
2016-Sep-19 16:24S 23°58' W 046°18'0 0.0
2016-Sep-19 14:33S 23°58' W 046°18'0 0.0
2016-Sep-19 13:30S 23°58' W 046°18'0 0.0
2016-Sep-19 12:30S 23°58' W 046°18'0 0.0
2016-Sep-19 11:30S 23°58' W 046°18'0 0.0
2016-Sep-19 09:24S 23°58' W 046°18'0 0.0
2016-Sep-19 07:30S 23°58' W 046°18'0 0.0
2016-Sep-19 06:30S 23°58' W 046°18'0 0.0
2016-Sep-19 03:24S 23°58' W 046°18'3 3.7
2016-Sep-19 02:33S 24°00' W 046°20'7 3.6
2016-Sep-19 00:34S 24°07' W 046°20'0 0.0
2016-Sep-18 19:28S 24°07' W 046°20'0 0.0
2016-Sep-18 15:28S 24°07' W 046°20'0 0.0
2016-Sep-18 14:34S 24°07' W 046°20'0 0.0
2016-Sep-18 10:25S 24°07' W 046°20'0 0.0
2016-Sep-18 09:34S 24°07' W 046°20'0 0.0
2016-Sep-18 02:34S 24°07' W 046°20'0 0.0
2016-Sep-18 01:28S 24°07' W 046°20'0 0.0
2016-Sep-18 00:31S 24°07' W 046°20'0 0.0
2016-Sep-17 22:25S 24°07' W 046°20'0 0.0
2016-Sep-17 21:34S 24°07' W 046°20'0 0.0
2016-Sep-17 20:31S 24°07' W 046°20'1 0.7
2016-Sep-17 19:16S 24°08' W 046°20'17711.7
2016-Sep-17 04:14S 23°12' W 043°17'20 5.5
2016-Sep-17 00:33S 22°52' W 043°12'0 0.0
2016-Sep-16 17:27S 22°52' W 043°12'0 0.0
2016-Sep-16 15:33S 22°52' W 043°12'0 0.0
2016-Sep-16 12:33S 22°52' W 043°12'20817.3
2016-Sep-16 00:33S 24°44' W 046°24'  
2016-Sep-13 07:30S 26°55' W 048°32'0 0.0
2016-Sep-13 04:28S 26°55' W 048°32'172 6.4
2016-Sep-12 01:33S 24°36' W 046°40'2211.2
2016-Sep-11 23:33S 24°17' W 046°27'1211.8
2016-Sep-11 22:33S 24°06' W 046°23'9 8.6
2016-Sep-11 21:33S 23°59' W 046°17'1 1.0
2016-Sep-11 20:33S 23°58' W 046°18'0 0.0
2016-Sep-11 19:27S 23°58' W 046°18'0 0.0
2016-Sep-11 18:33S 23°58' W 046°18'0 0.0
2016-Sep-11 17:33S 23°58' W 046°18'0 0.0
2016-Sep-11 16:33S 23°58' W 046°18'0 0.0
2016-Sep-11 15:24S 23°58' W 046°18'0 0.0
2016-Sep-11 14:30S 23°58' W 046°18'0 0.0
2016-Sep-11 13:33S 23°58' W 046°18'0 0.0
2016-Sep-11 12:33S 23°58' W 046°18'0 0.0
2016-Sep-11 11:33S 23°58' W 046°18'0 0.0
2016-Sep-11 10:33S 23°58' W 046°18'0 0.0
2016-Sep-11 08:30S 23°58' W 046°18'0 0.0
2016-Sep-11 07:30S 23°58' W 046°18'5 1.3
2016-Sep-11 03:33S 24°02' W 046°21'1110.7
2016-Sep-11 02:34S 24°13' W 046°22'1717.0
2016-Sep-11 01:34S 24°23' W 046°07'  

Dump ship's entire track history